Time;durP1;ratioP1;P1;durP2;ratioP2;P2;SDS_P1;SDS_P2;PMS_P1;PMS_P2;Temp;Humidity;BMP_temperature;BMP_pressure;BME280_temperature;BME280_humidity;BME280_pressure;Samples;Min_cycle;Max_cycle;Signal;HPM_P1;HPM_P2
2021/12/08 00:01:34;;;;;;;5.30;3.17;;;4.90;1.00;6.30;98912.00;;;;5011044;28;21049;-78
2021/12/08 00:04:02;;;;;;;6.10;3.03;;;4.90;1.00;6.30;98870.00;;;;4995519;28;20457;-80
2021/12/08 00:06:31;;;;;;;4.03;3.30;;;4.90;1.00;6.20;98915.00;;;;5005454;28;20481;-78
2021/12/08 00:09:04;;;;;;;5.70;2.83;;;4.90;1.00;6.30;98920.00;;;;4994574;28;20451;-78
2021/12/08 00:14:19;;;;;;;4.27;2.87;;;4.90;1.00;6.30;98915.00;;;;4957466;28;20822;-78
2021/12/08 00:16:47;;;;;;;4.97;3.10;;;4.90;1.00;6.30;98908.00;;;;4999199;28;20459;-78
2021/12/08 00:19:16;;;;;;;5.17;2.80;;;5.00;1.00;6.30;98890.00;;;;5002975;28;20461;-80
2021/12/08 00:21:44;;;;;;;6.57;3.30;;;5.00;1.00;6.40;98912.00;;;;5004256;28;20475;-79
2021/12/08 00:24:12;;;;;;;5.37;3.60;;;5.00;1.00;6.40;98908.00;;;;4995245;28;20451;-79
2021/12/08 00:26:42;;;;;;;6.33;2.87;;;5.00;1.00;6.40;98905.00;;;;4999338;28;20489;-82
2021/12/08 00:29:11;;;;;;;5.47;2.90;;;5.00;1.00;6.40;98895.00;;;;5009197;28;20797;-80
2021/12/08 00:31:40;;;;;;;3.47;2.33;;;5.00;1.00;6.40;98887.00;;;;4999402;28;20467;-79
2021/12/08 00:34:09;;;;;;;4.43;2.67;;;5.00;1.00;6.50;98903.00;;;;5019136;28;20439;-81
2021/12/08 00:36:42;;;;;;;5.07;2.40;;;5.00;1.00;6.50;98892.00;;;;5015860;28;20451;-78
2021/12/08 00:39:12;;;;;;;7.57;2.80;;;5.00;1.00;6.50;98886.00;;;;5003469;28;20529;-78
2021/12/08 00:41:42;;;;;;;4.10;2.60;;;5.00;1.00;6.50;98864.00;;;;4994878;28;20474;-79
2021/12/08 00:44:11;;;;;;;3.30;2.57;;;4.90;1.00;6.60;98833.00;;;;4993826;28;20971;-79
2021/12/08 00:46:39;;;;;;;4.60;2.77;;;5.10;1.00;6.70;98853.00;;;;4996057;28;20493;-78
2021/12/08 00:49:11;;;;;;;4.20;3.07;;;5.10;1.00;6.70;98834.00;;;;5014885;28;20453;-78
2021/12/08 00:51:39;;;;;;;5.13;2.53;;;5.10;1.00;6.60;98858.00;;;;5001990;28;20475;-77
2021/12/08 00:54:08;;;;;;;4.77;2.80;;;5.00;1.00;6.60;98855.00;;;;4996696;28;20980;-77
2021/12/08 00:56:36;;;;;;;3.50;2.70;;;4.90;1.00;6.60;98868.00;;;;4993662;28;20533;-78
2021/12/08 00:59:06;;;;;;;4.23;3.00;;;4.90;1.00;6.50;98869.00;;;;4993373;28;20971;-77
2021/12/08 01:01:34;;;;;;;4.80;2.93;;;4.90;1.00;6.50;98875.00;;;;4993677;28;20483;-78
2021/12/08 01:04:03;;;;;;;6.37;3.10;;;4.80;1.00;6.50;98882.00;;;;4993697;28;20490;-79
2021/12/08 01:06:31;;;;;;;5.60;2.80;;;4.80;1.00;6.50;98874.00;;;;4979226;28;20482;-79
2021/12/08 01:08:59;;;;;;;4.47;2.97;;;4.80;1.00;6.50;98894.00;;;;4985388;28;20458;-79
2021/12/08 01:11:28;;;;;;;4.13;2.80;;;4.70;1.00;6.50;98828.00;;;;5005566;28;20557;-78
2021/12/08 01:13:56;;;;;;;4.20;2.70;;;4.70;1.00;6.50;98892.00;;;;4996008;28;20455;-78
2021/12/08 01:16:26;;;;;;;4.77;2.60;;;4.70;1.00;6.50;98902.00;;;;5012689;28;20532;-78
2021/12/08 01:18:55;;;;;;;8.50;3.00;;;4.70;1.00;6.50;98908.00;;;;5013663;28;20425;-79
2021/12/08 01:21:23;;;;;;;5.47;2.70;;;4.70;1.00;6.40;98911.00;;;;4997094;28;20485;-78
2021/12/08 01:23:52;;;;;;;5.03;2.67;;;4.80;1.00;6.40;98908.00;;;;4993030;28;20447;-80
2021/12/08 01:26:20;;;;;;;4.37;2.83;;;4.70;1.00;6.40;98927.00;;;;5002246;28;20489;-79
2021/12/08 01:28:50;;;;;;;3.63;2.67;;;4.70;1.00;6.40;98932.00;;;;4992997;28;20442;-79
2021/12/08 01:31:18;;;;;;;5.10;2.40;;;4.70;1.00;6.30;98932.00;;;;4993292;28;20470;-79
2021/12/08 01:33:48;;;;;;;7.87;2.93;;;4.70;1.00;6.30;98945.00;;;;4993903;28;20457;-79
2021/12/08 01:36:16;;;;;;;4.97;2.60;;;4.70;1.00;6.40;98950.00;;;;4991929;28;20543;-79
2021/12/08 01:38:46;;;;;;;3.93;2.77;;;4.60;1.00;6.30;98935.00;;;;4976351;28;20442;-79
2021/12/08 01:41:14;;;;;;;6.73;2.60;;;4.60;1.00;6.10;98949.00;;;;4992795;28;20486;-79
2021/12/08 01:45:56;;;;;;;2.97;2.17;;;4.60;1.00;6.10;98952.00;;;;4985059;28;20601;-79
2021/12/08 01:46:32;;;;;;;3.77;2.40;;;4.60;1.00;5.90;98948.00;;;;4974173;28;20487;-79
2021/12/08 01:49:02;;;;;;;6.00;2.60;;;4.50;1.00;5.70;98945.00;;;;4973456;28;20803;-79
2021/12/08 01:51:31;;;;;;;5.50;2.77;;;4.50;1.00;5.70;98940.00;;;;4993010;28;20471;-79
2021/12/08 01:54:02;;;;;;;4.30;2.13;;;4.40;1.00;5.60;98949.00;;;;5005736;28;20445;-79
2021/12/08 01:56:33;;;;;;;3.87;2.20;;;4.30;1.00;5.60;98961.00;;;;5002398;28;20443;-79
2021/12/08 01:59:03;;;;;;;5.67;2.40;;;4.20;1.00;5.50;98870.00;;;;5011632;28;20498;-80
2021/12/08 02:01:34;;;;;;;4.77;2.80;;;4.20;1.00;5.50;98912.00;;;;5029696;28;20446;-82
2021/12/08 02:04:06;;;;;;;5.73;2.80;;;4.10;1.00;5.50;98951.00;;;;5016739;28;21429;-81
2021/12/08 02:06:38;;;;;;;5.90;2.27;;;4.10;1.00;5.50;98945.00;;;;5022820;28;20421;-82
2021/12/08 02:09:10;;;;;;;2.50;2.07;;;4.10;1.00;5.40;98939.00;;;;5003896;28;20504;-78
2021/12/08 02:11:40;;;;;;;4.93;1.90;;;4.10;1.00;5.60;98941.00;;;;4985377;28;20493;-79
2021/12/08 02:14:08;;;;;;;6.20;2.50;;;4.10;1.00;5.60;98946.00;;;;4993251;28;20537;-79
2021/12/08 02:16:37;;;;;;;3.43;2.10;;;4.10;1.00;5.60;98934.00;;;;4992721;28;20465;-80
2021/12/08 02:19:07;;;;;;;5.30;2.57;;;4.00;1.00;5.60;98919.00;;;;4976265;28;20447;-78
2021/12/08 02:21:40;;;;;;;4.07;2.30;;;4.10;1.00;5.50;98911.00;;;;4990142;28;20493;-77
2021/12/08 02:24:11;;;;;;;4.50;2.10;;;4.10;1.00;5.30;98921.00;;;;4982095;28;20451;-78
2021/12/08 02:26:41;;;;;;;5.00;2.60;;;4.00;1.00;5.50;98908.00;;;;5002379;28;20446;-78
2021/12/08 02:29:15;;;;;;;5.67;2.80;;;4.00;1.00;5.50;98902.00;;;;5003274;28;20453;-78
2021/12/08 02:31:51;;;;;;;3.30;2.47;;;3.90;1.00;5.60;98871.00;;;;4994163;28;20501;-78
2021/12/08 02:48:12;;;;;;;3.83;2.30;;;3.90;1.00;5.70;98888.00;;;;5003635;28;21029;-78
2021/12/08 02:50:44;;;;;;;5.53;2.50;;;3.80;1.00;5.60;98891.00;;;;5005343;28;20482;-77
2021/12/08 02:53:15;;;;;;;3.77;2.50;;;3.80;1.00;5.70;98890.00;;;;5009705;28;20434;-77
2021/12/08 02:55:45;;;;;;;4.47;2.90;;;3.90;1.00;5.80;98882.00;;;;5002658;28;20466;-77
2021/12/08 02:58:15;;;;;;;5.23;2.90;;;4.00;1.00;5.60;98879.00;;;;5009227;28;20453;-78
2021/12/08 03:00:51;;;;;;;4.73;2.83;;;3.80;1.00;5.70;98853.00;;;;4999568;28;20482;-76
2021/12/08 03:03:19;;;;;;;4.30;3.20;;;3.80;1.00;5.60;98862.00;;;;4995357;28;20458;-78
2021/12/08 03:05:48;;;;;;;4.33;2.63;;;3.80;1.00;5.60;98861.00;;;;5003651;28;20466;-78
2021/12/08 03:08:18;;;;;;;4.20;3.23;;;3.80;1.00;5.60;98851.00;;;;5025853;28;20481;-75
2021/12/08 03:10:51;;;;;;;4.70;3.00;;;3.80;1.00;5.60;98849.00;;;;5016855;28;20485;-78
2021/12/08 03:13:28;;;;;;;4.07;2.90;;;3.80;1.00;5.60;98837.00;;;;5022017;28;20438;-76
2021/12/08 03:15:57;;;;;;;4.50;3.10;;;3.80;1.00;5.50;98840.00;;;;5017909;28;20438;-76
2021/12/08 03:18:32;;;;;;;5.20;3.03;;;3.80;1.00;5.60;98849.00;;;;5021670;28;20461;-77
2021/12/08 03:21:04;;;;;;;4.10;3.00;;;3.80;1.00;5.60;98868.00;;;;4990190;28;20477;-77
2021/12/08 03:23:45;;;;;;;4.67;2.57;;;3.80;1.00;5.60;98852.00;;;;5015280;28;20469;-78
2021/12/08 03:26:14;;;;;;;3.93;2.70;;;3.80;1.00;5.60;98852.00;;;;5007221;28;20469;-78
2021/12/08 03:28:56;;;;;;;4.13;3.27;;;3.80;1.00;5.60;98854.00;;;;5011567;28;20484;-78
2021/12/08 03:31:30;;;;;;;5.43;3.03;;;3.80;1.00;5.70;98837.00;;;;4997757;28;20509;-78
2021/12/08 03:33:59;;;;;;;4.60;3.40;;;3.80;1.00;5.60;98849.00;;;;5021435;28;20502;-77
2021/12/08 03:36:28;;;;;;;4.80;3.70;;;3.80;1.00;5.60;98842.00;;;;5005254;28;20490;-78
2021/12/08 03:38:58;;;;;;;4.00;3.57;;;3.80;1.00;5.70;98819.00;;;;5000590;28;20466;-77
2021/12/08 03:41:31;;;;;;;4.07;3.10;;;3.80;1.00;5.80;98805.00;;;;4990466;28;20500;-77
2021/12/08 03:44:00;;;;;;;4.57;3.10;;;3.90;1.00;5.80;98848.00;;;;4987542;28;21080;-77
2021/12/08 03:46:31;;;;;;;6.97;3.30;;;3.90;1.00;5.90;98834.00;;;;4990576;28;20471;-78
2021/12/08 03:49:01;;;;;;;6.77;3.53;;;4.00;1.00;5.90;98847.00;;;;4998968;28;20496;-77
2021/12/08 03:51:29;;;;;;;5.40;3.60;;;4.00;1.00;5.90;98839.00;;;;5012584;28;21013;-78
2021/12/08 03:53:59;;;;;;;5.80;3.87;;;4.00;1.00;5.90;98845.00;;;;5013053;28;20461;-78
2021/12/08 03:56:27;;;;;;;4.93;3.13;;;4.00;1.00;6.00;98855.00;;;;5017611;28;20459;-78
2021/12/08 03:58:56;;;;;;;7.47;3.47;;;4.20;1.00;6.00;98835.00;;;;5012993;28;20465;-78
2021/12/08 04:01:24;;;;;;;4.20;3.63;;;4.10;1.00;6.00;98807.00;;;;5025623;28;20541;-78
2021/12/08 04:03:54;;;;;;;4.87;3.33;;;4.10;1.00;6.00;98822.00;;;;5003274;28;20485;-78
2021/12/08 04:06:32;;;;;;;7.57;3.83;;;4.10;1.00;6.10;98861.00;;;;5009384;28;20458;-78
2021/12/08 04:09:06;;;;;;;4.30;3.23;;;4.10;1.00;6.10;98857.00;;;;5010944;28;20565;-79
2021/12/08 04:11:34;;;;;;;6.40;3.57;;;4.20;1.00;6.20;98855.00;;;;5004936;28;20482;-78
2021/12/08 04:14:07;;;;;;;5.33;3.50;;;4.30;1.00;6.20;98856.00;;;;4999482;28;20473;-78
2021/12/08 04:16:40;;;;;;;6.63;3.97;;;4.20;1.00;6.20;98856.00;;;;5002021;28;20493;-78
2021/12/08 04:19:13;;;;;;;6.03;3.13;;;4.20;1.00;6.20;98846.00;;;;4987072;28;20458;-78
2021/12/08 04:21:42;;;;;;;5.00;3.53;;;4.20;1.00;6.20;98847.00;;;;4991434;28;20478;-77
2021/12/08 04:24:12;;;;;;;5.07;4.17;;;4.20;1.00;6.10;98823.00;;;;4997134;28;20939;-78
2021/12/08 04:26:49;;;;;;;5.30;3.77;;;4.20;1.00;6.20;98836.00;;;;5001293;28;20482;-77
2021/12/08 04:29:25;;;;;;;5.20;4.30;;;4.20;1.00;6.20;98853.00;;;;4998202;28;20504;-77
2021/12/08 04:31:56;;;;;;;5.93;3.73;;;4.20;1.00;6.20;98864.00;;;;4999853;28;20484;-78
2021/12/08 04:34:30;;;;;;;5.20;4.67;;;4.30;1.00;6.30;98855.00;;;;5010226;28;20467;-78
2021/12/08 04:37:04;;;;;;;5.20;4.37;;;4.30;1.00;6.30;98852.00;;;;5008993;28;20480;-78
2021/12/08 04:39:47;;;;;;;4.53;4.10;;;4.30;1.00;6.30;98865.00;;;;5020439;28;20433;-78
2021/12/08 04:42:22;;;;;;;3.87;2.70;;;4.40;1.00;6.30;98869.00;;;;5002110;28;20455;-78
2021/12/08 04:44:56;;;;;;;5.00;3.40;;;4.30;1.00;6.30;98857.00;;;;5000953;28;20450;-78
2021/12/08 04:47:33;;;;;;;4.80;3.83;;;4.40;1.00;6.30;98832.00;;;;4985784;28;20451;-79
2021/12/08 04:53:25;;;;;;;5.50;3.90;;;4.30;1.00;6.30;98862.00;;;;5000690;28;20558;-78
2021/12/08 05:01:55;;;;;;;5.57;3.70;;;4.30;1.00;6.30;98860.00;;;;5012993;28;20633;-79
2021/12/08 05:04:34;;;;;;;6.30;3.90;;;4.40;1.00;6.40;98848.00;;;;4984800;28;20451;-79
2021/12/08 05:07:28;;;;;;;4.13;3.67;;;4.40;1.00;6.40;98833.00;;;;5000859;28;20462;-78
2021/12/08 05:09:59;;;;;;;4.13;3.30;;;4.40;1.00;6.40;98878.00;;;;5012130;28;20564;-79
2021/12/08 05:12:33;;;;;;;4.80;3.67;;;4.50;1.00;6.50;98888.00;;;;5001635;28;20474;-78
2021/12/08 05:15:07;;;;;;;3.00;2.63;;;4.50;1.00;6.50;98848.00;;;;5012144;28;20508;-78
2021/12/08 05:17:42;;;;;;;5.70;3.20;;;4.60;1.00;6.50;98867.00;;;;5009244;28;20503;-79
2021/12/08 05:20:15;;;;;;;6.17;3.70;;;4.60;1.00;6.60;98870.00;;;;5003886;28;20466;-78
2021/12/08 05:22:51;;;;;;;3.57;2.83;;;4.60;1.00;6.60;98859.00;;;;5001151;28;20485;-78
2021/12/08 05:25:25;;;;;;;6.57;3.23;;;4.60;1.00;6.60;98865.00;;;;5009365;28;20457;-78
2021/12/08 05:27:58;;;;;;;5.90;3.13;;;4.60;1.00;6.60;98870.00;;;;5011026;28;20455;-77
2021/12/08 05:30:32;;;;;;;3.90;3.40;;;4.60;1.00;6.50;98855.00;;;;5018973;28;20498;-78
2021/12/08 05:33:02;;;;;;;5.30;3.50;;;4.60;1.00;6.50;98865.00;;;;5020850;28;20658;-78
2021/12/08 05:35:31;;;;;;;4.50;3.43;;;4.60;1.00;6.50;98860.00;;;;5021383;28;20461;-78
2021/12/08 05:37:59;;;;;;;4.00;3.43;;;4.60;1.00;6.50;98855.00;;;;5013345;28;20458;-77
2021/12/08 05:40:37;;;;;;;5.93;3.50;;;4.60;1.00;6.50;98874.00;;;;5009047;28;20485;-79
2021/12/08 05:43:08;;;;;;;6.77;3.43;;;4.60;1.00;6.50;98831.00;;;;5007413;28;20525;-78
2021/12/08 05:45:39;;;;;;;5.90;3.70;;;4.50;1.00;6.50;98864.00;;;;5003266;28;20442;-79
2021/12/08 05:48:08;;;;;;;4.93;3.63;;;4.50;1.00;6.50;98826.00;;;;5015120;28;20515;-77
2021/12/08 05:50:42;;;;;;;6.10;4.13;;;4.60;1.00;6.50;98872.00;;;;5025847;28;20481;-78
2021/12/08 05:53:11;;;;;;;5.70;3.80;;;4.60;1.00;6.50;98853.00;;;;5002711;28;20484;-79
2021/12/08 05:55:42;;;;;;;5.27;3.60;;;4.50;1.00;6.50;98848.00;;;;5026823;28;20501;-76
2021/12/08 05:58:14;;;;;;;5.33;3.77;;;4.50;1.00;6.60;98842.00;;;;5003006;28;20515;-78
2021/12/08 06:00:49;;;;;;;4.20;3.27;;;4.60;1.00;6.60;98858.00;;;;5001783;28;20530;-79
2021/12/08 06:03:19;;;;;;;4.00;3.30;;;4.60;1.00;6.50;98828.00;;;;5001278;28;20559;-78
2021/12/08 06:05:50;;;;;;;5.70;3.93;;;4.60;1.00;6.60;98729.00;;;;5003707;28;20465;-77
2021/12/08 06:08:20;;;;;;;4.67;3.67;;;4.60;1.00;6.60;98869.00;;;;4986277;28;20495;-77
2021/12/08 06:10:49;;;;;;;6.63;3.47;;;4.70;1.00;6.60;98873.00;;;;5007550;28;20826;-76
2021/12/08 06:13:19;;;;;;;7.60;3.83;;;4.60;1.00;6.50;98855.00;;;;5006270;28;20457;-77
2021/12/08 06:15:49;;;;;;;4.73;3.67;;;4.60;1.00;6.60;98869.00;;;;5000469;28;20510;-77
2021/12/08 06:18:23;;;;;;;4.70;3.77;;;4.70;1.00;6.60;98868.00;;;;5004315;28;20458;-78
2021/12/08 06:20:55;;;;;;;6.00;3.30;;;4.60;1.00;6.70;98858.00;;;;4995992;28;20564;-79
2021/12/08 06:23:24;;;;;;;7.03;3.77;;;4.60;1.00;6.70;98802.00;;;;4997396;28;21094;-79
2021/12/08 06:25:53;;;;;;;6.00;3.60;;;4.60;1.00;6.70;98855.00;;;;4997072;28;20545;-78
2021/12/08 06:28:22;;;;;;;5.63;3.20;;;4.70;1.00;6.70;98855.00;;;;5004381;28;20484;-79
2021/12/08 06:30:51;;;;;;;4.87;3.13;;;4.70;1.00;6.70;98849.00;;;;4996414;28;20486;-79
2021/12/08 06:33:21;;;;;;;3.67;3.37;;;4.70;1.00;6.70;98850.00;;;;4999002;28;20490;-79
2021/12/08 06:35:55;;;;;;;4.97;3.67;;;4.70;1.00;6.80;98831.00;;;;5017598;28;20457;-78
2021/12/08 06:38:26;;;;;;;7.70;4.17;;;4.70;1.00;6.70;98825.00;;;;5003441;28;20484;-79
2021/12/08 06:41:05;;;;;;;5.97;3.10;;;4.70;1.00;6.70;98818.00;;;;4997258;28;21055;-78
2021/12/08 06:43:40;;;;;;;6.57;3.70;;;4.70;1.00;6.70;98854.00;;;;5006436;28;20833;-79
2021/12/08 06:46:09;;;;;;;5.30;3.50;;;4.80;1.00;6.80;98835.00;;;;5001202;28;20446;-78
2021/12/08 06:48:43;;;;;;;5.57;3.43;;;4.80;1.00;6.80;98843.00;;;;4992531;28;20517;-79
2021/12/08 06:51:17;;;;;;;5.57;3.60;;;4.80;1.00;6.80;98834.00;;;;5008736;28;20473;-79
2021/12/08 06:53:49;;;;;;;6.07;4.00;;;4.80;1.00;6.80;98826.00;;;;5018801;28;20472;-79
2021/12/08 06:56:25;;;;;;;6.07;3.83;;;4.80;1.00;6.80;98855.00;;;;5004790;28;20951;-78
2021/12/08 06:59:00;;;;;;;6.43;3.80;;;4.80;1.00;6.80;98841.00;;;;5007232;28;20454;-77
2021/12/08 07:01:41;;;;;;;7.63;3.50;;;4.90;1.00;6.80;98848.00;;;;5008791;28;20567;-78
2021/12/08 07:04:27;;;;;;;8.80;3.87;;;4.80;1.00;6.80;98865.00;;;;4999058;28;20454;-78
2021/12/08 07:07:02;;;;;;;5.43;3.73;;;4.80;1.00;6.70;98879.00;;;;5002574;28;20478;-78
2021/12/08 07:09:37;;;;;;;4.73;3.20;;;4.90;1.00;6.80;98864.00;;;;4996533;28;20474;-78
2021/12/08 07:12:12;;;;;;;6.33;3.60;;;4.80;1.00;6.80;98856.00;;;;5001490;28;20541;-78
2021/12/08 07:14:46;;;;;;;6.27;4.10;;;4.80;1.00;6.70;98795.00;;;;4994842;28;20468;-78
2021/12/08 07:17:21;;;;;;;6.23;3.60;;;4.80;1.00;6.70;98819.00;;;;5015229;28;20454;-77
2021/12/08 07:20:14;;;;;;;7.07;3.80;;;4.80;1.00;6.60;98818.00;;;;5004059;28;20538;-78
2021/12/08 07:22:45;;;;;;;6.30;3.70;;;4.80;1.00;6.50;98862.00;;;;5005291;28;20456;-78
2021/12/08 07:25:16;;;;;;;5.90;3.80;;;4.80;1.00;6.60;98905.00;;;;4996950;28;20456;-78
2021/12/08 07:27:45;;;;;;;4.97;3.60;;;4.80;1.00;6.70;98846.00;;;;4999292;28;22323;-79
2021/12/08 07:30:21;;;;;;;4.83;4.03;;;4.90;1.00;6.80;98908.00;;;;5011586;28;20491;-78
2021/12/08 07:32:49;;;;;;;8.50;3.70;;;4.90;1.00;6.80;98907.00;;;;5004635;28;20455;-79
2021/12/08 07:35:22;;;;;;;6.07;3.77;;;4.90;1.00;6.90;98866.00;;;;4987107;28;20463;-78
2021/12/08 07:37:51;;;;;;;6.17;3.80;;;4.90;1.00;6.90;98881.00;;;;5011313;28;20541;-77
2021/12/08 07:40:29;;;;;;;7.30;3.90;;;5.00;1.00;6.90;98871.00;;;;5003838;28;20490;-77
2021/12/08 07:43:03;;;;;;;6.97;4.37;;;5.00;1.00;6.90;98891.00;;;;4997851;28;20450;-78
2021/12/08 07:45:38;;;;;;;8.10;4.10;;;5.00;1.00;6.90;98902.00;;;;4998702;28;20462;-77
2021/12/08 07:48:19;;;;;;;7.00;4.30;;;5.00;1.00;6.90;98912.00;;;;5007472;28;20532;-78
2021/12/08 07:50:52;;;;;;;6.10;4.53;;;5.00;1.00;6.90;98920.00;;;;5014444;28;21063;-79
2021/12/08 07:53:24;;;;;;;5.93;3.70;;;5.10;1.00;7.00;98908.00;;;;5023459;28;20714;-78
2021/12/08 07:56:03;;;;;;;4.60;4.10;;;5.10;1.00;7.00;98908.00;;;;5007208;28;20581;-77
2021/12/08 07:58:34;;;;;;;4.47;3.17;;;5.10;1.00;7.10;98865.00;;;;5014812;28;20946;-78
2021/12/08 08:01:09;;;;;;;5.10;4.00;;;5.20;1.00;7.20;98897.00;;;;5002750;28;20482;-78
2021/12/08 08:03:38;;;;;;;5.53;3.27;;;5.20;1.00;7.20;98884.00;;;;5007809;28;20458;-78
2021/12/08 08:06:11;;;;;;;4.97;3.87;;;5.20;1.00;7.30;98866.00;;;;5009516;28;20495;-77
2021/12/08 08:08:40;;;;;;;5.40;4.20;;;5.30;1.00;7.30;98869.00;;;;5002214;28;20454;-78
2021/12/08 08:11:12;;;;;;;5.60;4.23;;;5.30;1.00;7.30;98865.00;;;;5016557;28;20485;-78
2021/12/08 08:13:41;;;;;;;5.20;4.50;;;5.30;1.00;7.30;98872.00;;;;5015344;28;20459;-77
2021/12/08 08:16:15;;;;;;;7.37;4.37;;;5.30;1.00;7.30;98853.00;;;;5016493;28;20454;-78
2021/12/08 08:18:51;;;;;;;5.90;4.37;;;5.30;1.00;7.30;98872.00;;;;5017655;28;20446;-78
2021/12/08 08:21:26;;;;;;;7.67;4.40;;;5.30;1.00;7.30;98880.00;;;;5007864;28;20490;-79
2021/12/08 08:23:54;;;;;;;5.20;4.33;;;5.30;1.00;7.40;98882.00;;;;5011150;28;20457;-79
2021/12/08 08:26:23;;;;;;;5.90;4.53;;;5.40;1.00;7.40;98859.00;;;;5005373;28;20501;-78
2021/12/08 08:28:53;;;;;;;8.20;4.77;;;5.40;1.00;7.50;98868.00;;;;5021544;28;20465;-78
2021/12/08 08:31:27;;;;;;;6.00;4.33;;;5.50;1.00;7.50;98854.00;;;;5055657;22;20507;-78
2021/12/08 08:33:56;;;;;;;5.60;4.10;;;5.50;1.00;7.50;98850.00;;;;5077802;28;20477;-73
2021/12/08 08:36:33;;;;;;;8.23;4.30;;;5.50;1.00;7.60;98871.00;;;;5076665;28;20504;-74
2021/12/08 08:39:10;;;;;;;5.10;3.93;;;5.60;1.00;7.60;98845.00;;;;5075722;28;20510;-77
2021/12/08 08:41:43;;;;;;;5.37;4.13;;;5.60;1.00;7.60;98858.00;;;;5057463;28;20473;-78
2021/12/08 08:44:19;;;;;;;5.33;4.17;;;5.60;1.00;7.70;98858.00;;;;5054434;28;20575;-77
2021/12/08 08:46:57;;;;;;;6.77;4.30;;;5.60;1.00;7.70;98881.00;;;;5034249;28;20824;-77
2021/12/08 08:49:31;;;;;;;6.00;4.10;;;5.60;1.00;7.80;98865.00;;;;5036085;28;20548;-78
2021/12/08 08:52:07;;;;;;;5.80;4.13;;;5.60;1.00;7.80;98894.00;;;;5033810;28;20488;-77
2021/12/08 08:54:39;;;;;;;5.10;4.60;;;5.70;1.00;7.80;98897.00;;;;5040789;28;20527;-77
2021/12/08 08:57:13;;;;;;;5.50;4.40;;;5.70;1.00;7.80;98907.00;;;;5030562;28;20445;-77
2021/12/08 08:59:45;;;;;;;5.93;4.80;;;5.70;1.00;7.90;98915.00;;;;5038475;28;20559;-76
2021/12/08 09:02:20;;;;;;;5.20;4.10;;;6.00;1.00;7.90;98924.00;;;;5038321;28;20548;-76
2021/12/08 09:04:53;;;;;;;5.60;3.80;;;6.00;1.00;7.90;98938.00;;;;5054025;28;20444;-74
2021/12/08 09:07:25;;;;;;;4.47;3.80;;;6.00;1.00;8.00;98927.00;;;;5057710;28;20451;-74
2021/12/08 09:09:57;;;;;;;4.80;4.07;;;6.00;1.00;8.00;98877.00;;;;5073583;28;20539;-74
2021/12/08 09:12:32;;;;;;;5.40;3.43;;;6.00;1.00;8.00;98903.00;;;;5051988;28;20449;-73
2021/12/08 09:15:07;;;;;;;5.57;3.90;;;6.00;1.00;8.10;98913.00;;;;5041621;28;20552;-76
2021/12/08 09:17:42;;;;;;;4.67;3.77;;;6.00;1.00;8.30;98885.00;;;;5042376;28;20448;-78
2021/12/08 09:20:23;;;;;;;6.70;3.83;;;6.10;1.00;8.20;98815.00;;;;5053082;28;20467;-77
2021/12/08 09:22:59;;;;;;;5.30;4.13;;;6.20;1.00;8.20;98903.00;;;;5042722;28;20479;-74
2021/12/08 09:25:35;;;;;;;5.03;4.00;;;6.20;1.00;8.00;98901.00;;;;5039170;28;20458;-75
2021/12/08 09:28:09;;;;;;;7.37;4.07;;;6.30;1.00;8.40;98903.00;;;;5026373;28;20533;-76
2021/12/08 09:30:44;;;;;;;3.97;3.57;;;6.30;1.00;8.50;98915.00;;;;5041800;28;20477;-74
2021/12/08 09:33:20;;;;;;;6.00;4.03;;;6.40;1.00;8.50;98911.00;;;;5042749;28;20459;-78
2021/12/08 09:35:53;;;;;;;7.00;4.70;;;6.40;1.00;8.70;98914.00;;;;5045258;28;20937;-75
2021/12/08 09:38:27;;;;;;;5.07;4.43;;;6.50;1.00;8.70;98929.00;;;;5044870;28;20448;-76
2021/12/08 09:41:01;;;;;;;6.47;4.07;;;6.60;1.00;8.70;98909.00;;;;5053899;28;20476;-77
2021/12/08 09:43:36;;;;;;;8.70;4.60;;;6.50;1.00;8.70;98920.00;;;;5048815;28;20433;-74
2021/12/08 09:46:10;;;;;;;7.40;4.40;;;6.60;1.00;8.70;98861.00;;;;5054436;28;20544;-74
2021/12/08 09:48:41;;;;;;;6.40;4.83;;;6.50;1.00;8.80;98920.00;;;;5053858;28;20443;-74
2021/12/08 09:51:12;;;;;;;5.13;4.63;;;6.50;1.00;8.80;98923.00;;;;5070712;28;20536;-75
2021/12/08 09:53:44;;;;;;;5.70;4.90;;;6.60;1.00;8.80;98942.00;;;;5049807;28;20460;-74
2021/12/08 09:56:19;;;;;;;6.50;4.70;;;6.60;1.00;8.80;98948.00;;;;5048684;28;20450;-73
2021/12/08 09:58:49;;;;;;;5.07;4.57;;;6.60;1.00;8.90;98935.00;;;;5049646;28;20460;-75
2021/12/08 10:01:21;;;;;;;5.40;4.67;;;6.70;1.00;9.00;98933.00;;;;5058069;28;20468;-79
2021/12/08 10:03:54;;;;;;;5.60;4.70;;;6.70;1.00;9.10;98946.00;;;;5061996;28;20487;-77
2021/12/08 10:06:24;;;;;;;7.67;4.50;;;6.90;1.00;9.10;98957.00;;;;5048811;28;20457;-76
2021/12/08 10:08:57;;;;;;;6.83;5.17;;;6.80;1.00;9.10;98966.00;;;;5046452;28;20461;-77
2021/12/08 10:11:28;;;;;;;9.10;5.17;;;6.90;1.00;9.20;98969.00;;;;5052312;28;20476;-76
2021/12/08 10:13:58;;;;;;;8.73;4.40;;;6.90;1.00;9.10;98965.00;;;;5049160;28;20484;-76
2021/12/08 10:16:27;;;;;;;6.30;5.40;;;6.80;1.00;9.20;98958.00;;;;5047741;28;20453;-74
2021/12/08 10:18:57;;;;;;;7.87;5.50;;;6.80;1.00;9.20;98911.00;;;;5055118;28;20429;-73
2021/12/08 10:21:34;;;;;;;8.87;5.70;;;6.80;1.00;9.20;98960.00;;;;5055963;28;20456;-76
2021/12/08 10:24:13;;;;;;;6.40;5.13;;;6.80;1.00;9.20;98926.00;;;;5054448;28;20472;-73
2021/12/08 10:26:42;;;;;;;6.23;5.13;;;6.90;1.00;9.20;98962.00;;;;5052575;28;20455;-75
2021/12/08 10:29:11;;;;;;;7.47;5.73;;;6.90;1.00;9.30;98965.00;;;;5053024;28;20444;-74
2021/12/08 10:31:45;;;;;;;5.60;5.10;;;7.00;1.00;9.20;98931.00;;;;5066224;28;20518;-77
2021/12/08 10:34:24;;;;;;;8.00;5.67;;;7.00;1.00;9.20;98954.00;;;;5055234;28;20536;-73
2021/12/08 10:36:55;;;;;;;6.30;5.60;;;6.90;1.00;9.10;98941.00;;;;5055864;28;20455;-75
2021/12/08 10:39:32;;;;;;;6.73;5.27;;;6.90;1.00;9.00;98946.00;;;;5073287;28;20452;-76
2021/12/08 10:42:14;;;;;;;7.47;5.40;;;6.80;1.00;9.00;98925.00;;;;5068575;28;20498;-77
2021/12/08 10:44:52;;;;;;;6.73;5.60;;;6.80;1.00;9.00;98928.00;;;;5064726;28;20456;-78
2021/12/08 10:47:29;;;;;;;7.40;5.53;;;6.80;1.00;9.10;98921.00;;;;5063688;28;20868;-77
2021/12/08 10:56:04;;;;;;;7.17;5.50;;;6.90;1.00;9.20;98929.00;;;;5063976;28;20486;-78
2021/12/08 10:58:35;;;;;;;6.97;5.53;;;6.90;1.00;9.30;98853.00;;;;5071944;28;20459;-77
2021/12/08 11:01:13;;;;;;;9.13;5.83;;;7.00;1.00;9.30;98906.00;;;;5061946;28;21022;-77
2021/12/08 11:03:43;;;;;;;8.10;5.80;;;7.00;1.00;9.30;98911.00;;;;5062542;28;20458;-77
2021/12/08 11:06:17;;;;;;;9.13;6.10;;;7.10;1.00;9.30;98925.00;;;;5042878;28;20512;-77
2021/12/08 11:08:49;;;;;;;7.37;5.70;;;7.10;1.00;9.30;98925.00;;;;5061777;28;20459;-76
2021/12/08 11:11:22;;;;;;;7.93;5.80;;;7.00;1.00;9.40;98935.00;;;;5057484;28;21019;-76
2021/12/08 11:13:53;;;;;;;8.73;5.80;;;7.10;1.00;9.40;98925.00;;;;5060325;28;20974;-75
2021/12/08 11:16:24;;;;;;;10.93;6.40;;;7.20;1.00;9.40;98913.00;;;;5041326;28;20532;-77
2021/12/08 11:19:00;;;;;;;9.57;6.90;;;7.10;1.00;9.40;98871.00;;;;5060727;28;20555;-76
2021/12/08 11:21:36;;;;;;;8.90;6.60;;;7.20;1.00;9.40;98846.00;;;;5062844;28;20475;-75
2021/12/08 11:24:18;;;;;;;7.80;6.37;;;7.20;1.00;9.50;98913.00;;;;5058852;28;20451;-75
2021/12/08 11:26:51;;;;;;;8.20;6.27;;;7.20;1.00;9.50;98899.00;;;;5061979;28;20466;-76
2021/12/08 11:29:22;;;;;;;10.23;5.87;;;7.20;1.00;9.50;98881.00;;;;5060871;28;20464;-77
2021/12/08 11:31:53;;;;;;;8.17;5.40;;;7.20;1.00;9.50;98904.00;;;;5061989;28;20494;-77
2021/12/08 11:34:25;;;;;;;8.77;6.20;;;7.20;1.00;9.50;98893.00;;;;5062844;28;20448;-77
2021/12/08 11:36:58;;;;;;;7.80;6.13;;;7.30;1.00;9.40;98884.00;;;;5068396;28;20491;-76
2021/12/08 11:39:31;;;;;;;8.40;5.90;;;7.40;1.00;9.80;98920.00;;;;5075541;28;20492;-76
2021/12/08 11:42:06;;;;;;;5.67;4.40;;;7.50;1.00;9.80;98889.00;;;;5071507;28;20503;-76
2021/12/08 11:44:42;;;;;;;12.10;6.70;;;7.60;1.00;9.70;98872.00;;;;5059849;28;20656;-77
2021/12/08 11:47:14;;;;;;;9.00;6.30;;;7.50;1.00;9.70;98903.00;;;;5056870;28;20452;-76
2021/12/08 11:49:46;;;;;;;8.40;5.50;;;7.50;1.00;9.70;98891.00;;;;5061393;28;20452;-77
2021/12/08 11:52:20;;;;;;;9.13;5.77;;;8.00;1.00;9.70;98871.00;;;;5059102;28;20499;-77
2021/12/08 11:54:52;;;;;;;7.00;5.60;;;8.30;1.00;9.70;98912.00;;;;5057108;28;20452;-75
2021/12/08 11:57:24;;;;;;;5.53;5.03;;;8.10;1.00;9.00;98893.00;;;;5063290;28;20459;-76
2021/12/08 12:00:00;;;;;;;9.10;5.73;;;8.20;1.00;9.80;98880.00;;;;5046235;28;20800;-76
2021/12/08 12:02:33;;;;;;;10.50;6.03;;;8.40;1.00;9.80;98880.00;;;;5042934;28;20444;-76
2021/12/08 12:05:05;;;;;;;9.43;6.37;;;8.40;1.00;9.80;98878.00;;;;5058986;28;20458;-76
2021/12/08 12:07:36;;;;;;;8.10;5.87;;;8.30;1.00;9.90;98889.00;;;;5060690;28;20446;-76
2021/12/08 12:10:06;;;;;;;6.00;5.50;;;8.20;1.00;9.90;98881.00;;;;5057239;28;20456;-77
2021/12/08 12:12:37;;;;;;;7.57;5.93;;;8.00;1.00;10.00;98778.00;;;;5058571;28;20496;-78